Time;durP1;ratioP1;P1;durP2;ratioP2;P2;SDS_P1;SDS_P2;PMS_P1;PMS_P2;Temp;Humidity;BMP_temperature;BMP_pressure;BME280_temperature;BME280_humidity;BME280_pressure;Samples;Min_cycle;Max_cycle;Signal;HPM_P1;HPM_P2
2022/04/14 00:01:57;;;;;;;8.43;7.77;;;;;;;12.22;100.00;101399.28;5113594;28;20268;-72
2022/04/14 00:04:23;;;;;;;8.03;7.67;;;;;;;12.16;100.00;101395.09;5113589;28;20207;-72
2022/04/14 00:06:50;;;;;;;7.97;7.67;;;;;;;12.13;100.00;101397.84;5113751;28;20251;-72
2022/04/14 00:09:18;;;;;;;7.33;7.07;;;;;;;12.12;100.00;101396.13;5113538;28;20220;-72
2022/04/14 00:11:44;;;;;;;12.63;7.83;;;;;;;12.08;100.00;101410.28;5113816;28;20205;-72
2022/04/14 00:14:11;;;;;;;7.93;7.67;;;;;;;12.05;100.00;101415.63;5113480;28;20189;-72
2022/04/14 00:16:37;;;;;;;9.20;8.70;;;;;;;12.08;100.00;101412.91;5113401;28;20201;-71
2022/04/14 00:19:04;;;;;;;9.60;8.80;;;;;;;12.07;100.00;101408.56;5113461;28;20191;-71
2022/04/14 00:21:31;;;;;;;9.23;8.50;;;;;;;12.10;100.00;101411.09;5113716;28;20185;-71
2022/04/14 00:23:57;;;;;;;8.87;8.37;;;;;;;12.14;100.00;101404.78;5113685;28;20205;-71
2022/04/14 00:26:24;;;;;;;8.30;7.87;;;;;;;12.15;100.00;101398.66;5113230;28;20207;-71
2022/04/14 00:28:50;;;;;;;9.27;8.83;;;;;;;12.14;100.00;101396.91;5113373;28;20230;-71
2022/04/14 00:31:17;;;;;;;8.50;8.10;;;;;;;12.12;100.00;101388.25;5113330;28;20185;-72
2022/04/14 00:33:43;;;;;;;10.47;8.33;;;;;;;12.13;100.00;101376.84;5113323;28;20216;-72
2022/04/14 00:36:09;;;;;;;9.23;8.40;;;;;;;12.13;100.00;101380.31;5113099;28;20233;-72
2022/04/14 00:38:36;;;;;;;9.23;8.53;;;;;;;12.13;100.00;101371.56;5113340;28;20177;-72
2022/04/14 00:41:03;;;;;;;9.07;8.50;;;;;;;12.10;100.00;101372.56;5113235;28;20226;-72
2022/04/14 00:43:32;;;;;;;8.87;8.47;;;;;;;12.06;100.00;101362.22;5113220;28;20224;-72
2022/04/14 00:46:00;;;;;;;8.83;8.20;;;;;;;12.05;100.00;101360.50;5113040;28;20604;-72
2022/04/14 00:48:27;;;;;;;8.03;7.57;;;;;;;11.99;100.00;101361.59;5113156;28;20231;-72
2022/04/14 00:50:55;;;;;;;8.63;8.13;;;;;;;12.02;100.00;101366.75;5113447;28;20575;-72
2022/04/14 00:53:22;;;;;;;7.90;7.57;;;;;;;12.08;100.00;101368.28;5113116;28;20654;-72
2022/04/14 00:55:49;;;;;;;8.57;7.90;;;;;;;12.07;100.00;101356.06;5113190;28;20232;-71
2022/04/14 00:58:16;;;;;;;8.77;8.10;;;;;;;12.07;100.00;101353.44;5113336;28;20219;-71
2022/04/14 01:00:44;;;;;;;9.57;8.90;;;;;;;12.00;100.00;101354.56;5113079;28;20661;-71
2022/04/14 01:03:10;;;;;;;9.30;8.77;;;;;;;12.01;100.00;101356.31;5116814;28;20716;-71
2022/04/14 01:05:38;;;;;;;9.07;8.57;;;;;;;12.02;100.00;101368.50;5116525;28;20585;-71
2022/04/14 01:08:05;;;;;;;9.07;8.47;;;;;;;12.06;100.00;101380.59;5117156;28;20626;-71
2022/04/14 01:10:33;;;;;;;9.13;8.53;;;;;;;12.04;100.00;101375.41;5117105;28;20185;-71
2022/04/14 01:13:00;;;;;;;11.37;9.63;;;;;;;12.04;100.00;101370.16;5116477;28;20213;-71
2022/04/14 01:15:27;;;;;;;8.20;7.80;;;;;;;12.04;100.00;101379.81;5116676;28;20295;-71
2022/04/14 01:17:54;;;;;;;9.37;8.67;;;;;;;12.08;100.00;101376.16;5116415;28;20213;-71
2022/04/14 01:20:20;;;;;;;10.47;9.63;;;;;;;12.08;100.00;101381.41;5116649;28;20185;-72
2022/04/14 01:22:56;;;;;;;8.67;8.07;;;;;;;12.05;100.00;101378.88;5116305;28;20196;-72
2022/04/14 01:25:25;;;;;;;9.27;8.67;;;;;;;12.05;100.00;101371.88;5116649;28;20677;-72
2022/04/14 01:27:51;;;;;;;9.57;8.90;;;;;;;12.06;100.00;101357.81;5116152;28;20221;-72
2022/04/14 01:30:19;;;;;;;8.00;7.80;;;;;;;12.05;100.00;101360.50;5116145;28;20604;-72
2022/04/14 01:32:45;;;;;;;8.40;7.90;;;;;;;12.01;100.00;101362.41;5116129;28;20196;-72
2022/04/14 01:35:13;;;;;;;9.73;8.73;;;;;;;12.00;100.00;101359.81;5116269;28;20231;-72
2022/04/14 01:37:40;;;;;;;8.63;8.20;;;;;;;11.97;100.00;101357.31;5115964;28;20227;-72
2022/04/14 01:40:07;;;;;;;10.20;9.20;;;;;;;11.98;100.00;101351.16;5116012;28;20235;-72
2022/04/14 01:42:34;;;;;;;9.77;9.10;;;;;;;11.99;100.00;101361.59;5115952;28;20615;-72
2022/04/14 01:45:06;;;;;;;9.33;8.83;;;;;;;11.93;100.00;101371.44;5115784;28;20201;-72
2022/04/14 01:47:32;;;;;;;9.07;8.37;;;;;;;11.88;100.00;101369.00;5116168;28;20211;-72
2022/04/14 01:49:58;;;;;;;8.90;8.40;;;;;;;11.84;100.00;101355.13;5115788;28;20247;-72
2022/04/14 01:52:25;;;;;;;10.47;9.23;;;;;;;11.82;100.00;101349.09;5115838;28;20204;-72
2022/04/14 01:54:51;;;;;;;8.80;7.83;;;;;;;11.80;100.00;101360.53;5115659;28;20183;-72
2022/04/14 01:57:18;;;;;;;9.17;8.33;;;;;;;11.76;100.00;101349.28;5115605;28;20182;-72
2022/04/14 01:59:44;;;;;;;10.73;9.93;;;;;;;11.73;100.00;101341.53;5115605;28;20659;-72
2022/04/14 02:02:11;;;;;;;10.20;9.17;;;;;;;11.77;100.00;101340.50;5115584;28;20345;-72
2022/04/14 02:04:37;;;;;;;10.23;9.53;;;;;;;11.75;100.00;101347.56;5115741;28;20690;-72
2022/04/14 02:07:05;;;;;;;10.40;9.83;;;;;;;11.77;100.00;101353.59;5115394;28;20233;-72
2022/04/14 02:09:31;;;;;;;12.27;11.07;;;;;;;11.78;100.00;101359.72;5115415;28;20193;-72
2022/04/14 02:11:58;;;;;;;14.90;11.90;;;;;;;11.75;100.00;101363.31;5115529;28;20663;-72
2022/04/14 02:14:24;;;;;;;12.97;11.70;;;;;;;11.81;100.00;101370.16;5115322;28;20213;-72
2022/04/14 02:16:50;;;;;;;11.33;10.47;;;;;;;11.80;100.00;101365.78;5115194;28;20228;-72
2022/04/14 02:19:17;;;;;;;10.97;9.97;;;;;;;11.84;100.00;101373.50;5115273;28;20181;-72
2022/04/14 02:21:43;;;;;;;12.40;11.30;;;;;;;11.81;100.00;101368.38;5115801;28;20197;-72
2022/04/14 02:24:09;;;;;;;13.50;12.30;;;;;;;11.82;100.00;101364.84;5115190;28;20213;-72
2022/04/14 02:26:36;;;;;;;13.47;12.27;;;;;;;11.69;100.00;101358.28;5115242;28;20626;-72
2022/04/14 02:29:02;;;;;;;11.83;11.00;;;;;;;11.64;100.00;101360.19;5115295;28;20181;-72
2022/04/14 02:31:28;;;;;;;11.83;10.73;;;;;;;11.63;100.00;101355.88;5114940;28;20268;-72
2022/04/14 02:33:55;;;;;;;10.97;10.23;;;;;;;11.62;100.00;101364.66;5114968;28;20214;-72
2022/04/14 02:36:23;;;;;;;18.03;12.60;;;;;;;11.62;100.00;101362.03;5114940;28;20628;-72
2022/04/14 02:38:50;;;;;;;12.70;11.43;;;;;;;11.60;100.00;101358.63;5114841;28;20654;-72
2022/04/14 02:41:16;;;;;;;12.63;11.67;;;;;;;11.63;100.00;101362.88;5115059;28;20271;-72
2022/04/14 02:43:43;;;;;;;11.90;10.67;;;;;;;11.58;100.00;101360.44;5114798;28;20182;-72
2022/04/14 02:46:09;;;;;;;13.57;12.37;;;;;;;11.57;100.00;101359.59;5114600;28;20236;-72
2022/04/14 02:48:36;;;;;;;16.13;13.00;;;;;;;11.56;100.00;101365.72;5114661;28;20184;-72
2022/04/14 02:51:02;;;;;;;13.57;12.30;;;;;;;11.58;100.00;101369.16;5114905;28;20205;-72
2022/04/14 02:53:29;;;;;;;13.47;12.30;;;;;;;11.59;100.00;101356.91;5114594;28;20574;-72
2022/04/14 02:55:55;;;;;;;12.77;11.77;;;;;;;11.59;100.00;101356.91;5114735;28;20619;-72
2022/04/14 02:58:21;;;;;;;14.03;12.60;;;;;;;11.58;100.00;101353.44;5114762;28;20228;-72
2022/04/14 03:00:49;;;;;;;14.37;13.00;;;;;;;11.58;100.00;101357.81;5114433;28;20217;-72
2022/04/14 03:03:16;;;;;;;14.23;12.77;;;;;;;11.55;100.00;101350.91;5114687;28;20265;-72
2022/04/14 03:05:43;;;;;;;23.47;14.40;;;;;;;11.54;100.00;101353.56;5114237;28;20294;-72
2022/04/14 03:08:09;;;;;;;14.60;13.30;;;;;;;11.55;100.00;101355.28;5114587;28;20233;-72
2022/04/14 03:10:35;;;;;;;18.43;13.67;;;;;;;11.53;100.00;101352.72;5114269;28;20250;-72
2022/04/14 03:13:02;;;;;;;20.00;14.50;;;;;;;11.55;100.00;101347.41;5114489;28;20193;-72
2022/04/14 03:15:29;;;;;;;22.47;15.17;;;;;;;11.57;100.00;101343.84;5114226;28;20227;-73
2022/04/14 03:17:55;;;;;;;26.97;17.03;;;;;;;11.54;100.00;101343.09;5114782;28;20216;-73
2022/04/14 03:20:22;;;;;;;16.67;13.93;;;;;;;11.56;100.00;101354.38;5114723;28;20226;-73
2022/04/14 03:22:48;;;;;;;18.73;14.87;;;;;;;11.57;100.00;101350.84;5114365;28;20217;-73
2022/04/14 03:25:15;;;;;;;19.67;15.87;;;;;;;11.58;100.00;101353.44;5113963;28;20233;-72
2022/04/14 03:27:42;;;;;;;18.07;16.23;;;;;;;11.54;100.00;101348.34;5113902;28;20243;-72
2022/04/14 03:30:10;;;;;;;15.87;14.23;;;;;;;11.49;100.00;101351.09;5113964;28;20212;-72
2022/04/14 03:32:44;;;;;;;17.97;13.77;;;;;;;11.47;100.00;101355.56;5114173;28;20232;-72
2022/04/14 03:35:12;;;;;;;19.97;15.63;;;;;;;11.44;100.00;101358.31;5114150;28;20239;-72
2022/04/14 03:37:39;;;;;;;24.17;17.03;;;;;;;11.46;100.00;101355.63;5113835;28;20221;-72
2022/04/14 03:40:07;;;;;;;27.00;16.17;;;;;;;11.45;100.00;101346.91;5113871;28;20193;-72
2022/04/14 03:42:35;;;;;;;24.13;16.90;;;;;;;11.47;100.00;101339.81;5114101;28;20232;-72
2022/04/14 03:45:03;;;;;;;25.07;17.73;;;;;;;11.50;100.00;101349.34;5114029;28;20205;-72
2022/04/14 03:47:30;;;;;;;24.10;17.77;;;;;;;11.52;100.00;101348.41;5114190;28;20201;-72
2022/04/14 03:49:56;;;;;;;28.20;18.40;;;;;;;11.50;100.00;101350.22;5113739;28;20216;-72
2022/04/14 03:52:23;;;;;;;22.30;17.07;;;;;;;11.47;100.00;101338.97;5114033;28;20548;-72
2022/04/14 03:54:49;;;;;;;22.93;15.83;;;;;;;11.47;100.00;101339.81;5113627;28;20238;-71
2022/04/14 03:57:16;;;;;;;26.10;17.43;;;;;;;11.46;100.00;101351.22;5113924;28;20244;-71
2022/04/14 03:59:42;;;;;;;27.70;18.40;;;;;;;11.44;100.00;101347.81;5113981;28;20197;-71
2022/04/14 04:02:09;;;;;;;24.73;17.93;;;;;;;11.48;100.00;101348.53;5114183;28;20220;-71
2022/04/14 04:04:36;;;;;;;32.17;19.23;;;;;;;11.49;100.00;101361.59;5113898;28;20712;-71
2022/04/14 04:07:02;;;;;;;26.53;18.17;;;;;;;11.47;100.00;101362.56;5114053;28;20671;-71
2022/04/14 04:09:31;;;;;;;27.53;18.07;;;;;;;11.46;100.00;101366.97;5113561;28;20248;-72
2022/04/14 04:11:58;;;;;;;27.63;18.20;;;;;;;11.50;100.00;101367.69;5114046;28;20693;-72
2022/04/14 04:14:24;;;;;;;25.50;18.63;;;;;;;11.48;100.00;101375.63;5113501;28;20185;-72
2022/04/14 04:16:51;;;;;;;23.80;18.20;;;;;;;11.48;100.00;101366.91;5113434;28;20609;-73
2022/04/14 04:19:17;;;;;;;24.07;17.53;;;;;;;11.48;100.00;101370.38;5113724;28;20651;-73
2022/04/14 04:21:44;;;;;;;27.93;19.17;;;;;;;11.45;100.00;101373.13;5113438;28;20214;-73
2022/04/14 04:24:10;;;;;;;25.87;18.30;;;;;;;11.52;100.00;101373.78;5113718;28;20610;-73
2022/04/14 04:26:36;;;;;;;22.73;17.57;;;;;;;11.47;100.00;101367.81;5113285;28;20225;-73
2022/04/14 04:29:03;;;;;;;20.97;16.93;;;;;;;11.45;100.00;101370.50;5113365;28;20209;-73
2022/04/14 04:31:29;;;;;;;20.17;16.20;;;;;;;11.46;100.00;101384.47;5113347;28;20608;-73
2022/04/14 04:33:56;;;;;;;28.53;19.33;;;;;;;11.53;100.00;101372.84;5113862;28;20215;-72
2022/04/14 04:36:22;;;;;;;31.07;18.70;;;;;;;11.55;100.00;101374.50;5114415;28;20235;-72
2022/04/14 04:38:48;;;;;;;28.03;18.10;;;;;;;11.57;100.00;101377.94;5117178;28;20595;-72
2022/04/14 04:41:15;;;;;;;19.13;15.83;;;;;;;11.57;100.00;101380.56;5117325;28;20194;-72
2022/04/14 04:43:41;;;;;;;25.20;18.07;;;;;;;11.66;100.00;101384.63;5108725;28;20216;-71
2022/04/14 04:46:08;;;;;;;27.33;18.47;;;;;;;11.60;100.00;101384.00;5105940;28;20307;-71
2022/04/14 04:48:35;;;;;;;27.70;18.60;;;;;;;11.68;100.00;101398.53;5116159;28;20185;-71
2022/04/14 04:51:02;;;;;;;28.23;18.67;;;;;;;11.78;100.00;101406.94;5116803;28;20613;-71
2022/04/14 04:53:28;;;;;;;30.70;19.27;;;;;;;11.66;100.00;101399.53;5117407;28;20232;-71
2022/04/14 04:55:55;;;;;;;27.17;18.57;;;;;;;11.61;100.00;101407.53;5098499;28;20252;-71
2022/04/14 04:58:21;;;;;;;32.77;19.93;;;;;;;11.50;100.00;101400.06;5116821;28;20216;-71
2022/04/14 05:00:48;;;;;;;29.97;18.57;;;;;;;11.57;100.00;101405.91;5116728;28;20223;-72
2022/04/14 05:03:14;;;;;;;28.20;19.40;;;;;;;11.55;100.00;101407.75;5116711;28;20216;-73
2022/04/14 05:05:40;;;;;;;36.83;20.93;;;;;;;11.58;100.00;101400.63;5116656;28;20232;-71
2022/04/14 05:08:07;;;;;;;32.77;19.53;;;;;;;11.57;100.00;101401.56;5114673;28;20205;-71
2022/04/14 05:10:34;;;;;;;31.67;20.10;;;;;;;11.60;100.00;101405.81;5114655;28;20186;-71
2022/04/14 05:13:01;;;;;;;31.47;19.23;;;;;;;11.52;100.00;101418.34;5099535;28;20181;-71
2022/04/14 05:15:28;;;;;;;34.03;20.47;;;;;;;11.52;100.00;101431.47;5097391;28;20614;-71
2022/04/14 05:17:55;;;;;;;34.37;20.10;;;;;;;11.57;100.00;101425.16;5116219;28;20193;-71
2022/04/14 05:20:21;;;;;;;33.13;21.43;;;;;;;11.67;100.00;101422.22;5116941;28;20213;-71
2022/04/14 05:22:48;;;;;;;36.13;20.87;;;;;;;11.67;100.00;101425.69;5116313;28;20679;-71
2022/04/14 05:25:14;;;;;;;32.57;21.53;;;;;;;11.63;100.00;101431.94;5114227;28;20244;-71
2022/04/14 05:27:42;;;;;;;45.57;23.07;;;;;;;11.61;100.00;101433.75;5116039;28;20619;-71
2022/04/14 05:30:10;;;;;;;47.10;22.80;;;;;;;11.62;100.00;101439.88;5113131;28;20217;-71
2022/04/14 05:32:38;;;;;;;49.77;24.50;;;;;;;11.61;100.00;101433.75;5111611;28;20209;-71
2022/04/14 05:35:08;;;;;;;55.73;27.37;;;;;;;11.65;100.00;101435.38;5116040;28;20240;-71
2022/04/14 05:37:35;;;;;;;52.57;27.43;;;;;;;11.65;100.00;101445.88;5113461;28;20197;-71
2022/04/14 05:40:06;;;;;;;52.17;26.10;;;;;;;11.68;100.00;101443.13;5095636;28;20214;-71
2022/04/14 05:42:32;;;;;;;57.33;26.47;;;;;;;11.73;100.00;101443.00;5104922;28;20538;-71
2022/04/14 05:44:59;;;;;;;57.40;27.17;;;;;;;11.77;100.00;101436.72;5115735;28;20574;-71
2022/04/14 05:47:25;;;;;;;62.37;29.27;;;;;;;11.80;100.00;101448.00;5115632;28;20224;-71
2022/04/14 05:49:53;;;;;;;62.07;28.90;;;;;;;11.85;100.00;101447.81;5115710;28;20659;-71
2022/04/14 05:52:20;;;;;;;72.10;31.03;;;;;;;11.85;100.00;101442.56;5115496;28;20193;-70
2022/04/14 05:54:48;;;;;;;66.87;30.03;;;;;;;11.88;100.00;101441.63;5095364;28;20194;-70
2022/04/14 05:57:15;;;;;;;73.80;34.00;;;;;;;11.91;100.00;101442.38;5114895;28;20550;-70
2022/04/14 05:59:42;;;;;;;76.37;30.83;;;;;;;11.99;100.00;101442.09;5114174;28;20611;-70
2022/04/14 06:02:09;;;;;;;79.70;34.40;;;;;;;11.99;100.00;101442.09;5115021;28;20220;-70
2022/04/14 06:04:36;;;;;;;70.97;33.47;;;;;;;12.00;100.00;101446.44;5116038;28;20196;-70
2022/04/14 06:07:03;;;;;;;90.03;37.07;;;;;;;12.08;100.00;101445.28;5114081;28;20374;-70
2022/04/14 06:09:29;;;;;;;101.80;38.80;;;;;;;12.01;100.00;101453.41;5115413;28;20216;-70
2022/04/14 06:11:56;;;;;;;108.00;38.60;;;;;;;12.04;100.00;101454.16;5115364;28;20241;-70
2022/04/14 06:14:23;;;;;;;89.97;36.20;;;;;;;12.15;100.00;101455.56;5112240;28;20227;-70
2022/04/14 06:16:49;;;;;;;97.90;37.70;;;;;;;12.11;100.00;101455.66;5115223;28;20231;-69
2022/04/14 06:19:15;;;;;;;99.00;38.57;;;;;;;12.22;100.00;101455.28;5114181;28;20267;-70
2022/04/14 06:21:42;;;;;;;92.63;37.97;;;;;;;12.24;100.00;101460.47;5114852;28;20207;-70
2022/04/14 06:24:08;;;;;;;95.17;36.00;;;;;;;12.20;100.00;101449.19;5115152;28;20251;-70
2022/04/14 06:26:35;;;;;;;96.63;37.30;;;;;;;12.30;100.00;101455.00;5114375;28;20658;-70
2022/04/14 06:29:02;;;;;;;94.70;39.00;;;;;;;12.25;100.00;101463.03;5115299;28;20669;-70
2022/04/14 06:31:28;;;;;;;94.53;37.97;;;;;;;12.40;100.00;101458.97;5114998;28;20202;-70
2022/04/14 06:33:55;;;;;;;90.27;37.53;;;;;;;12.32;100.00;101461.03;5114259;28;20189;-70
2022/04/14 06:36:21;;;;;;;92.03;38.97;;;;;;;12.42;100.00;101464.19;5114698;28;20247;-70
2022/04/14 06:38:48;;;;;;;100.50;37.50;;;;;;;12.37;100.00;101452.09;5115176;28;20177;-70
2022/04/14 06:41:14;;;;;;;87.87;38.93;;;;;;;12.41;100.00;101463.31;5113661;28;20679;-70
2022/04/14 06:43:41;;;;;;;101.87;40.20;;;;;;;12.46;100.00;101461.38;5114099;28;20239;-71
2022/04/14 06:46:07;;;;;;;94.77;40.93;;;;;;;12.50;100.00;101460.38;5105478;28;20237;-70
2022/04/14 06:48:34;;;;;;;99.33;38.63;;;;;;;12.50;100.00;101467.38;5112804;28;20667;-70
2022/04/14 06:51:00;;;;;;;100.93;38.60;;;;;;;12.50;100.00;101463.00;5113097;28;20660;-70
2022/04/14 06:53:27;;;;;;;97.57;40.53;;;;;;;12.51;100.00;101458.59;5113367;28;20736;-70
2022/04/14 06:55:54;;;;;;;104.60;40.80;;;;;;;12.55;100.00;101461.03;5113475;28;20248;-70
2022/04/14 06:58:20;;;;;;;96.87;38.50;;;;;;;12.59;100.00;101460.03;5114081;28;20209;-70
2022/04/14 07:00:46;;;;;;;92.70;39.17;;;;;;;12.63;100.00;101458.13;5113903;28;20271;-70
2022/04/14 07:03:13;;;;;;;100.07;40.17;;;;;;;12.60;100.00;101468.75;5114327;28;20185;-70
2022/04/14 07:05:39;;;;;;;109.43;41.47;;;;;;;12.59;100.00;101459.16;5114271;28;20231;-70
2022/04/14 07:08:06;;;;;;;113.93;40.93;;;;;;;12.54;100.00;101468.97;5114475;28;20248;-70
2022/04/14 07:10:33;;;;;;;98.93;40.73;;;;;;;12.55;100.00;101465.44;5114276;28;20205;-70
2022/04/14 07:12:59;;;;;;;104.23;40.17;;;;;;;12.53;100.00;101462.88;5114461;28;20651;-70
2022/04/14 07:15:26;;;;;;;94.03;36.57;;;;;;;12.59;100.00;101470.53;5114355;28;20618;-70
2022/04/14 07:17:53;;;;;;;94.47;37.40;;;;;;;12.60;100.00;101464.34;5114627;28;20586;-70
2022/04/14 07:20:19;;;;;;;95.83;40.20;;;;;;;12.56;100.00;101482.91;5113955;28;20185;-70
2022/04/14 07:22:49;;;;;;;93.03;36.83;;;;;;;12.57;100.00;101477.63;5114043;28;20220;-70
2022/04/14 07:25:23;;;;;;;83.83;36.67;;;;;;;12.55;100.00;101486.44;5113965;28;20681;-70
2022/04/14 07:27:50;;;;;;;84.50;35.57;;;;;;;12.56;100.00;101482.91;5114182;28;20205;-70
2022/04/14 07:30:18;;;;;;;89.67;37.07;;;;;;;12.60;100.00;101484.50;5113985;28;20222;-70
2022/04/14 07:32:45;;;;;;;80.43;35.73;;;;;;;12.57;100.00;101484.63;5114587;28;20223;-73
2022/04/14 07:35:13;;;;;;;81.93;36.27;;;;;;;12.53;100.00;101488.28;5114059;28;20209;-72
2022/04/14 07:37:40;;;;;;;87.67;36.30;;;;;;;12.49;100.00;101486.69;5114668;28;20217;-72
2022/04/14 07:40:08;;;;;;;90.00;36.80;;;;;;;12.60;100.00;101495.03;5114151;28;20189;-72
2022/04/14 07:42:36;;;;;;;79.03;34.47;;;;;;;12.59;100.00;101488.91;5114202;28;20220;-72
2022/04/14 07:45:05;;;;;;;71.27;33.30;;;;;;;12.66;100.00;101490.41;5113763;28;20235;-72
2022/04/14 07:47:39;;;;;;;78.17;35.17;;;;;;;12.76;100.00;101485.66;5113994;28;20199;-72
2022/04/14 07:50:06;;;;;;;85.57;36.63;;;;;;;12.85;100.00;101489.69;5114298;28;20263;-72
2022/04/14 07:52:55;;;;;;;74.97;34.00;;;;;;;12.93;100.00;101491.13;5113970;28;20199;-72
2022/04/14 07:55:29;;;;;;;72.17;35.70;;;;;;;12.98;100.00;101487.44;5113486;28;20233;-72
2022/04/14 07:57:57;;;;;;;76.50;34.43;;;;;;;13.08;100.00;101486.19;5113934;28;20222;-72
2022/04/14 08:00:25;;;;;;;76.70;35.43;;;;;;;13.16;100.00;101484.97;5113795;28;20227;-72
2022/04/14 08:02:58;;;;;;;78.50;34.13;;;;;;;13.28;100.00;101481.00;5113563;28;20224;-72
2022/04/14 08:05:33;;;;;;;73.03;34.07;;;;;;;13.39;100.00;101477.94;5113878;28;20246;-72
2022/04/14 08:08:05;;;;;;;70.03;34.63;;;;;;;13.37;100.00;101480.66;5113651;28;20560;-72
2022/04/14 08:10:32;;;;;;;82.90;36.03;;;;;;;13.27;100.00;101484.56;5114941;28;20226;-72
2022/04/14 08:12:59;;;;;;;87.10;34.37;;;;;;;13.46;100.00;101482.91;5117649;28;20223;-72
2022/04/14 08:15:27;;;;;;;86.20;36.43;;;;;;;13.62;100.00;101487.53;5118385;28;20722;-72
2022/04/14 08:17:54;;;;;;;92.00;37.60;;;;;;;13.65;100.00;101477.75;5118134;28;20187;-72
2022/04/14 08:20:20;;;;;;;96.23;39.40;;;;;;;13.85;100.00;101483.91;5118111;28;20221;-72
2022/04/14 08:22:48;;;;;;;83.57;38.37;;;;;;;14.11;100.00;101480.19;5117991;28;20667;-72
2022/04/14 08:25:18;;;;;;;86.13;39.57;;;;;;;14.28;100.00;101486.41;5117362;28;20232;-72
2022/04/14 08:27:46;;;;;;;86.97;37.47;;;;;;;14.42;100.00;101480.50;5117620;28;20298;-72
2022/04/14 08:30:18;;;;;;;84.20;37.80;;;;;;;14.53;100.00;101483.56;5117286;28;20591;-72
2022/04/14 08:32:46;;;;;;;71.37;35.97;;;;;;;14.49;100.00;101484.63;5117856;28;20585;-72
2022/04/14 08:35:13;;;;;;;73.03;35.30;;;;;;;14.71;100.00;101481.84;5117165;28;20240;-72
2022/04/14 08:37:41;;;;;;;72.90;34.77;;;;;;;14.93;100.00;101481.72;5117109;28;20189;-72
2022/04/14 08:40:10;;;;;;;75.43;34.43;;;;;;;15.07;100.00;101481.94;5117117;28;20216;-72
2022/04/14 08:42:42;;;;;;;83.67;34.70;;;;;;;15.04;100.00;101489.13;5117096;28;20298;-72
2022/04/14 08:45:13;;;;;;;70.97;35.47;;;;;;;15.11;100.00;101483.47;5117193;28;20251;-72
2022/04/14 08:47:40;;;;;;;68.07;35.67;;;;;;;15.19;100.00;101490.16;5116994;28;20659;-72
2022/04/14 08:50:09;;;;;;;72.87;33.40;;;;;;;15.22;100.00;101487.41;5116955;28;20192;-72
2022/04/14 08:52:37;;;;;;;65.73;34.17;;;;;;;15.23;100.00;101489.09;5117159;28;20526;-72
2022/04/14 08:55:06;;;;;;;63.83;33.10;;;;;;;15.07;100.00;101488.97;5116806;28;20771;-72
2022/04/14 08:57:35;;;;;;;75.47;35.30;;;;;;;15.06;100.00;101488.09;5117363;28;20217;-72
2022/04/14 09:00:06;;;;;;;67.40;34.40;;;;;;;15.01;100.00;101489.28;5116979;28;20189;-72
2022/04/14 09:02:34;;;;;;;66.23;35.13;;;;;;;14.95;99.59;101486.94;5116745;28;20536;-72
2022/04/14 09:05:02;;;;;;;59.17;30.00;;;;;;;14.93;99.83;101486.13;5116655;28;20756;-72
2022/04/14 09:07:28;;;;;;;52.00;29.13;;;;;;;14.88;96.27;101489.00;5116586;28;20627;-73
2022/04/14 09:09:55;;;;;;;48.77;25.73;;;;;;;15.13;95.46;101484.25;5116629;28;20217;-72
2022/04/14 09:12:22;;;;;;;54.40;27.67;;;;;;;15.47;96.88;101487.91;5117049;28;20212;-72
2022/04/14 09:14:48;;;;;;;47.33;27.97;;;;;;;15.62;91.63;101487.16;5116722;28;20258;-72
2022/04/14 09:17:15;;;;;;;53.67;28.20;;;;;;;15.72;92.46;101479.66;5117094;28;20213;-72
2022/04/14 09:19:42;;;;;;;43.20;28.07;;;;;;;15.96;92.98;101473.09;5117010;28;20224;-72
2022/04/14 09:22:11;;;;;;;49.40;28.53;;;;;;;16.10;91.63;101482.97;5115860;28;20627;-72
2022/04/14 09:24:47;;;;;;;46.20;26.87;;;;;;;16.33;89.88;101479.09;5116262;28;20185;-72
2022/04/14 09:27:28;;;;;;;43.30;26.33;;;;;;;16.26;86.91;101492.72;5116488;28;20164;-72
2022/04/14 09:29:57;;;;;;;48.87;29.00;;;;;;;16.33;90.51;101483.53;5116856;28;20182;-72
2022/04/14 09:32:30;;;;;;;46.23;27.63;;;;;;;16.41;89.04;101486.63;5116480;28;20197;-72
2022/04/14 09:34:58;;;;;;;47.43;26.77;;;;;;;16.66;88.06;101481.72;5116435;28;20220;-72
2022/04/14 09:37:26;;;;;;;38.63;25.30;;;;;;;16.72;89.53;101473.50;5115894;28;20209;-72
2022/04/14 09:40:01;;;;;;;45.77;28.33;;;;;;;16.76;85.02;101477.66;5116295;28;20239;-72
2022/04/14 09:42:30;;;;;;;39.27;26.47;;;;;;;16.71;86.28;101471.78;5116509;28;20260;-72
2022/04/14 09:45:18;;;;;;;40.57;27.20;;;;;;;16.81;88.94;101473.94;5115861;28;20228;-72
2022/04/14 09:48:06;;;;;;;37.50;24.33;;;;;;;16.69;85.66;101471.00;5115847;28;20196;-72
2022/04/14 09:50:35;;;;;;;27.17;18.70;;;;;;;16.46;84.63;101477.53;5115893;28;20173;-72
2022/04/14 09:53:05;;;;;;;31.93;21.53;;;;;;;16.21;83.12;101480.59;5097572;28;20189;-72
2022/04/14 09:55:37;;;;;;;32.87;23.50;;;;;;;16.15;84.71;101478.31;5115920;28;20243;-72
2022/04/14 09:58:17;;;;;;;38.33;23.43;;;;;;;16.29;84.16;101476.69;5115701;28;20193;-72
2022/04/14 10:00:52;;;;;;;29.07;19.07;;;;;;;16.57;84.92;101471.63;5115666;28;20173;-72
2022/04/14 10:03:25;;;;;;;21.60;16.87;;;;;;;16.76;82.27;101468.88;5115545;28;20226;-72
2022/04/14 10:05:56;;;;;;;33.73;20.87;;;;;;;16.74;82.82;101470.78;5115637;28;20686;-71
2022/04/14 10:08:24;;;;;;;38.63;20.30;;;;;;;16.88;85.42;101464.72;5115698;28;20280;-71
2022/04/14 10:11:04;;;;;;;26.77;19.57;;;;;;;17.21;80.72;101461.94;5115687;28;20213;-71
2022/04/14 10:13:35;;;;;;;23.63;16.77;;;;;;;17.17;81.93;101463.94;5115747;28;20205;-71
2022/04/14 10:16:02;;;;;;;24.70;17.77;;;;;;;17.24;82.03;101469.72;5115563;28;20613;-71
2022/04/14 10:18:30;;;;;;;18.63;16.07;;;;;;;17.27;79.29;101467.75;5115172;28;20216;-71
2022/04/14 10:20:57;;;;;;;15.07;13.60;;;;;;;17.38;78.17;101463.66;5115218;28;20209;-71
2022/04/14 10:23:27;;;;;;;19.20;16.43;;;;;;;17.45;75.91;101467.66;5115170;28;20238;-71
2022/04/14 10:25:55;;;;;;;19.33;17.30;;;;;;;17.58;78.41;101466.00;5115071;28;20729;-71
2022/04/14 10:28:24;;;;;;;21.30;16.57;;;;;;;17.67;74.27;101462.78;5115016;28;20228;-72
2022/04/14 10:30:55;;;;;;;18.20;16.30;;;;;;;17.67;78.99;101454.84;5097340;28;20189;-71
2022/04/14 10:33:22;;;;;;;21.80;17.97;;;;;;;17.67;82.17;101454.84;5114962;28;20166;-71
2022/04/14 10:35:50;;;;;;;25.67;15.73;;;;;;;17.41;79.08;101455.50;5115249;28;20213;-71
2022/04/14 10:38:24;;;;;;;26.60;15.60;;;;;;;16.98;78.81;101447.38;5114818;28;20713;-71
2022/04/14 10:41:15;;;;;;;22.23;16.47;;;;;;;16.85;78.67;101449.84;5097077;28;20212;-68
2022/04/14 10:43:45;;;;;;;11.30;10.57;;;;;;;16.81;74.39;101450.13;5115355;28;20570;-67
2022/04/14 10:46:15;;;;;;;14.20;12.90;;;;;;;16.77;78.19;101445.00;5114742;28;20213;-67
2022/04/14 10:48:44;;;;;;;11.37;10.47;;;;;;;16.98;78.29;101440.28;5114599;28;20246;-67
2022/04/14 10:51:13;;;;;;;10.90;10.03;;;;;;;17.00;76.27;101443.72;5114615;28;20217;-67
2022/04/14 10:53:50;;;;;;;8.47;8.17;;;;;;;16.87;75.05;101452.44;5114555;28;20213;-67
2022/04/14 10:56:41;;;;;;;10.10;9.63;;;;;;;16.60;76.63;101442.41;5114597;28;20200;-67
2022/04/14 10:59:15;;;;;;;10.17;9.47;;;;;;;16.86;77.55;101440.13;5115065;28;20181;-67
2022/04/14 11:04:28;;;;;;;10.27;9.77;;;;;;;16.55;76.28;101441.78;5114676;28;20671;-67
2022/04/14 11:06:59;;;;;;;8.03;7.63;;;;;;;16.67;76.33;101440.28;5114462;28;20204;-68
2022/04/14 11:09:44;;;;;;;9.37;8.73;;;;;;;16.68;76.82;101440.19;5114301;28;20225;-68
2022/04/14 11:12:12;;;;;;;10.47;9.67;;;;;;;17.06;74.09;101437.22;5114605;28;20647;-68
2022/04/14 11:14:51;;;;;;;9.63;9.03;;;;;;;17.45;70.22;101442.00;5114205;28;20185;-69